sensor_id;sensor_type;location;lat;lon;timestamp;P1;durP1;ratioP1;P2;durP2;ratioP2
58950;SDS011;44730;53.158;6.398;2022-11-15T00:00:50;24.88;;;17.55;;
58950;SDS011;44730;53.158;6.398;2022-11-15T00:03:17;24.23;;;17.80;;
58950;SDS011;44730;53.158;6.398;2022-11-15T00:05:47;20.85;;;17.08;;
58950;SDS011;44730;53.158;6.398;2022-11-15T00:08:13;20.73;;;17.70;;
58950;SDS011;44730;53.158;6.398;2022-11-15T00:10:39;20.00;;;16.80;;
58950;SDS011;44730;53.158;6.398;2022-11-15T00:13:10;22.70;;;18.05;;
58950;SDS011;44730;53.158;6.398;2022-11-15T00:15:38;23.52;;;18.48;;
58950;SDS011;44730;53.158;6.398;2022-11-15T00:18:12;22.08;;;17.27;;
58950;SDS011;44730;53.158;6.398;2022-11-15T00:20:39;22.42;;;17.83;;
58950;SDS011;44730;53.158;6.398;2022-11-15T00:23:04;23.85;;;18.30;;
58950;SDS011;44730;53.158;6.398;2022-11-15T00:25:31;23.25;;;18.88;;
58950;SDS011;44730;53.158;6.398;2022-11-15T00:27:57;23.88;;;18.50;;
58950;SDS011;44730;53.158;6.398;2022-11-15T00:30:24;23.48;;;18.67;;
58950;SDS011;44730;53.158;6.398;2022-11-15T00:32:50;22.33;;;18.77;;
58950;SDS011;44730;53.158;6.398;2022-11-15T00:35:16;23.98;;;18.27;;
58950;SDS011;44730;53.158;6.398;2022-11-15T00:37:42;24.73;;;19.13;;
58950;SDS011;44730;53.158;6.398;2022-11-15T00:40:10;22.40;;;18.77;;
58950;SDS011;44730;53.158;6.398;2022-11-15T00:42:37;21.33;;;16.52;;
58950;SDS011;44730;53.158;6.398;2022-11-15T00:45:04;23.73;;;18.33;;
58950;SDS011;44730;53.158;6.398;2022-11-15T00:47:29;23.05;;;17.48;;
58950;SDS011;44730;53.158;6.398;2022-11-15T00:49:55;22.42;;;17.23;;
58950;SDS011;44730;53.158;6.398;2022-11-15T00:52:21;21.98;;;16.55;;
58950;SDS011;44730;53.158;6.398;2022-11-15T00:54:46;22.38;;;16.55;;
58950;SDS011;44730;53.158;6.398;2022-11-15T00:57:12;20.08;;;16.27;;
58950;SDS011;44730;53.158;6.398;2022-11-15T00:59:38;23.20;;;17.90;;
58950;SDS011;44730;53.158;6.398;2022-11-15T01:02:03;21.88;;;17.75;;
58950;SDS011;44730;53.158;6.398;2022-11-15T01:04:29;22.80;;;17.02;;
58950;SDS011;44730;53.158;6.398;2022-11-15T01:06:55;21.23;;;17.25;;
58950;SDS011;44730;53.158;6.398;2022-11-15T01:09:21;22.15;;;16.45;;
58950;SDS011;44730;53.158;6.398;2022-11-15T01:11:46;18.75;;;16.35;;
58950;SDS011;44730;53.158;6.398;2022-11-15T01:14:12;20.65;;;16.77;;
58950;SDS011;44730;53.158;6.398;2022-11-15T01:16:38;23.02;;;16.80;;
58950;SDS011;44730;53.158;6.398;2022-11-15T01:19:04;21.90;;;17.17;;
58950;SDS011;44730;53.158;6.398;2022-11-15T01:21:30;21.95;;;17.52;;
58950;SDS011;44730;53.158;6.398;2022-11-15T01:23:56;22.25;;;16.98;;
58950;SDS011;44730;53.158;6.398;2022-11-15T01:26:22;24.08;;;18.25;;
58950;SDS011;44730;53.158;6.398;2022-11-15T01:28:48;23.10;;;18.67;;
58950;SDS011;44730;53.158;6.398;2022-11-15T01:31:16;23.17;;;19.20;;
58950;SDS011;44730;53.158;6.398;2022-11-15T01:33:43;23.70;;;18.92;;
58950;SDS011;44730;53.158;6.398;2022-11-15T01:36:13;23.48;;;19.63;;
58950;SDS011;44730;53.158;6.398;2022-11-15T01:38:41;23.98;;;19.05;;
58950;SDS011;44730;53.158;6.398;2022-11-15T01:41:14;23.45;;;18.58;;
58950;SDS011;44730;53.158;6.398;2022-11-15T01:43:46;23.70;;;18.75;;
58950;SDS011;44730;53.158;6.398;2022-11-15T01:46:33;23.30;;;18.77;;
58950;SDS011;44730;53.158;6.398;2022-11-15T01:49:02;24.55;;;18.75;;
58950;SDS011;44730;53.158;6.398;2022-11-15T01:51:31;23.65;;;18.95;;
58950;SDS011;44730;53.158;6.398;2022-11-15T01:53:59;22.27;;;18.20;;
58950;SDS011;44730;53.158;6.398;2022-11-15T01:56:30;22.52;;;18.45;;
58950;SDS011;44730;53.158;6.398;2022-11-15T01:58:58;25.85;;;19.38;;
58950;SDS011;44730;53.158;6.398;2022-11-15T02:01:25;23.85;;;18.48;;
58950;SDS011;44730;53.158;6.398;2022-11-15T02:03:57;24.92;;;18.33;;
58950;SDS011;44730;53.158;6.398;2022-11-15T02:06:28;23.58;;;18.95;;
58950;SDS011;44730;53.158;6.398;2022-11-15T02:08:58;21.27;;;17.13;;
58950;SDS011;44730;53.158;6.398;2022-11-15T02:11:25;23.35;;;17.98;;
58950;SDS011;44730;53.158;6.398;2022-11-15T02:13:53;23.05;;;17.40;;
58950;SDS011;44730;53.158;6.398;2022-11-15T02:30:42;20.58;;;16.92;;
58950;SDS011;44730;53.158;6.398;2022-11-15T02:33:15;23.08;;;18.10;;
58950;SDS011;44730;53.158;6.398;2022-11-15T02:38:31;21.63;;;17.00;;
58950;SDS011;44730;53.158;6.398;2022-11-15T02:41:18;22.58;;;17.77;;
58950;SDS011;44730;53.158;6.398;2022-11-15T02:43:54;23.17;;;17.45;;
58950;SDS011;44730;53.158;6.398;2022-11-15T02:46:35;22.23;;;16.65;;
58950;SDS011;44730;53.158;6.398;2022-11-15T02:49:26;21.33;;;16.67;;
58950;SDS011;44730;53.158;6.398;2022-11-15T02:51:55;23.85;;;18.25;;
58950;SDS011;44730;53.158;6.398;2022-11-15T02:54:22;24.45;;;18.23;;
58950;SDS011;44730;53.158;6.398;2022-11-15T02:56:49;27.35;;;18.52;;
58950;SDS011;44730;53.158;6.398;2022-11-15T03:07:24;25.58;;;18.58;;
58950;SDS011;44730;53.158;6.398;2022-11-15T03:12:27;24.13;;;18.17;;
58950;SDS011;44730;53.158;6.398;2022-11-15T03:15:05;26.90;;;18.90;;
58950;SDS011;44730;53.158;6.398;2022-11-15T03:17:43;25.63;;;19.52;;
58950;SDS011;44730;53.158;6.398;2022-11-15T03:20:20;25.73;;;18.17;;
58950;SDS011;44730;53.158;6.398;2022-11-15T03:22:46;28.92;;;19.73;;
58950;SDS011;44730;53.158;6.398;2022-11-15T03:25:18;26.38;;;19.23;;
58950;SDS011;44730;53.158;6.398;2022-11-15T03:27:48;29.52;;;19.33;;
58950;SDS011;44730;53.158;6.398;2022-11-15T03:30:17;28.98;;;18.95;;
58950;SDS011;44730;53.158;6.398;2022-11-15T03:32:45;27.77;;;19.67;;
58950;SDS011;44730;53.158;6.398;2022-11-15T03:35:18;25.75;;;18.65;;
58950;SDS011;44730;53.158;6.398;2022-11-15T03:37:50;32.03;;;20.58;;
58950;SDS011;44730;53.158;6.398;2022-11-15T03:40:29;26.70;;;19.67;;
58950;SDS011;44730;53.158;6.398;2022-11-15T03:45:46;30.45;;;20.23;;
58950;SDS011;44730;53.158;6.398;2022-11-15T03:48:25;31.67;;;21.15;;
58950;SDS011;44730;53.158;6.398;2022-11-15T03:50:55;30.00;;;19.83;;
58950;SDS011;44730;53.158;6.398;2022-11-15T03:53:21;32.03;;;20.25;;
58950;SDS011;44730;53.158;6.398;2022-11-15T03:55:47;32.25;;;20.10;;
58950;SDS011;44730;53.158;6.398;2022-11-15T03:58:12;28.65;;;20.17;;
58950;SDS011;44730;53.158;6.398;2022-11-15T04:00:38;32.45;;;20.83;;
58950;SDS011;44730;53.158;6.398;2022-11-15T04:03:04;32.10;;;21.20;;
58950;SDS011;44730;53.158;6.398;2022-11-15T04:05:32;32.28;;;20.80;;
58950;SDS011;44730;53.158;6.398;2022-11-15T04:08:03;30.15;;;21.20;;
58950;SDS011;44730;53.158;6.398;2022-11-15T04:10:31;32.08;;;21.48;;
58950;SDS011;44730;53.158;6.398;2022-11-15T04:12:58;32.58;;;20.80;;
58950;SDS011;44730;53.158;6.398;2022-11-15T04:15:24;32.45;;;22.15;;
58950;SDS011;44730;53.158;6.398;2022-11-15T04:17:51;32.63;;;21.88;;
58950;SDS011;44730;53.158;6.398;2022-11-15T04:20:22;37.15;;;23.15;;
58950;SDS011;44730;53.158;6.398;2022-11-15T04:23:10;34.95;;;22.05;;
58950;SDS011;44730;53.158;6.398;2022-11-15T04:25:59;32.50;;;22.10;;
58950;SDS011;44730;53.158;6.398;2022-11-15T04:28:28;33.70;;;21.95;;
58950;SDS011;44730;53.158;6.398;2022-11-15T04:30:54;34.42;;;21.65;;
58950;SDS011;44730;53.158;6.398;2022-11-15T04:33:19;32.40;;;21.85;;
58950;SDS011;44730;53.158;6.398;2022-11-15T04:35:46;31.35;;;21.92;;
58950;SDS011;44730;53.158;6.398;2022-11-15T04:38:31;36.83;;;22.48;;
58950;SDS011;44730;53.158;6.398;2022-11-15T04:41:00;32.53;;;21.92;;
58950;SDS011;44730;53.158;6.398;2022-11-15T04:43:27;36.33;;;22.70;;
58950;SDS011;44730;53.158;6.398;2022-11-15T04:45:53;36.25;;;22.73;;
58950;SDS011;44730;53.158;6.398;2022-11-15T04:48:19;35.40;;;23.00;;
58950;SDS011;44730;53.158;6.398;2022-11-15T04:50:44;35.53;;;22.17;;
58950;SDS011;44730;53.158;6.398;2022-11-15T04:53:13;34.63;;;22.70;;
58950;SDS011;44730;53.158;6.398;2022-11-15T04:55:39;39.15;;;22.88;;
58950;SDS011;44730;53.158;6.398;2022-11-15T04:58:04;31.83;;;21.83;;
58950;SDS011;44730;53.158;6.398;2022-11-15T05:00:30;35.00;;;24.27;;
58950;SDS011;44730;53.158;6.398;2022-11-15T05:02:56;41.13;;;24.40;;
58950;SDS011;44730;53.158;6.398;2022-11-15T05:05:41;42.60;;;26.27;;
58950;SDS011;44730;53.158;6.398;2022-11-15T05:08:07;36.72;;;24.75;;
58950;SDS011;44730;53.158;6.398;2022-11-15T05:10:33;42.38;;;26.30;;
58950;SDS011;44730;53.158;6.398;2022-11-15T05:12:58;48.13;;;29.13;;
58950;SDS011;44730;53.158;6.398;2022-11-15T05:15:24;45.85;;;28.40;;
58950;SDS011;44730;53.158;6.398;2022-11-15T05:17:50;41.45;;;26.75;;
58950;SDS011;44730;53.158;6.398;2022-11-15T05:20:22;47.60;;;29.27;;
58950;SDS011;44730;53.158;6.398;2022-11-15T05:22:48;48.00;;;29.35;;
58950;SDS011;44730;53.158;6.398;2022-11-15T05:25:13;51.97;;;30.40;;
58950;SDS011;44730;53.158;6.398;2022-11-15T05:27:39;54.05;;;30.88;;
58950;SDS011;44730;53.158;6.398;2022-11-15T05:30:05;50.08;;;30.50;;
58950;SDS011;44730;53.158;6.398;2022-11-15T05:32:31;52.58;;;31.50;;
58950;SDS011;44730;53.158;6.398;2022-11-15T05:34:57;58.05;;;33.15;;
58950;SDS011;44730;53.158;6.398;2022-11-15T05:37:23;57.17;;;33.03;;
58950;SDS011;44730;53.158;6.398;2022-11-15T05:39:49;55.47;;;30.75;;
58950;SDS011;44730;53.158;6.398;2022-11-15T05:42:15;56.45;;;33.20;;
58950;SDS011;44730;53.158;6.398;2022-11-15T05:44:42;61.03;;;33.80;;
58950;SDS011;44730;53.158;6.398;2022-11-15T05:47:11;63.00;;;37.03;;
58950;SDS011;44730;53.158;6.398;2022-11-15T05:49:42;62.25;;;35.10;;
58950;SDS011;44730;53.158;6.398;2022-11-15T05:52:11;63.67;;;36.30;;
58950;SDS011;44730;53.158;6.398;2022-11-15T05:54:39;66.35;;;37.53;;
58950;SDS011;44730;53.158;6.398;2022-11-15T05:57:05;64.40;;;36.28;;
58950;SDS011;44730;53.158;6.398;2022-11-15T05:59:31;69.68;;;37.42;;
58950;SDS011;44730;53.158;6.398;2022-11-15T06:01:58;64.70;;;36.75;;
58950;SDS011;44730;53.158;6.398;2022-11-15T06:04:24;76.93;;;37.85;;
58950;SDS011;44730;53.158;6.398;2022-11-15T06:06:50;67.55;;;38.38;;
58950;SDS011;44730;53.158;6.398;2022-11-15T06:09:15;68.90;;;38.75;;
58950;SDS011;44730;53.158;6.398;2022-11-15T06:11:41;75.20;;;39.78;;
58950;SDS011;44730;53.158;6.398;2022-11-15T06:14:07;74.05;;;37.95;;
58950;SDS011;44730;53.158;6.398;2022-11-15T06:16:33;71.45;;;38.78;;
58950;SDS011;44730;53.158;6.398;2022-11-15T06:18:58;85.25;;;42.60;;
58950;SDS011;44730;53.158;6.398;2022-11-15T06:21:24;82.20;;;41.42;;
58950;SDS011;44730;53.158;6.398;2022-11-15T06:23:52;82.00;;;43.95;;
58950;SDS011;44730;53.158;6.398;2022-11-15T06:26:18;80.13;;;40.90;;
58950;SDS011;44730;53.158;6.398;2022-11-15T06:28:44;68.78;;;38.22;;
58950;SDS011;44730;53.158;6.398;2022-11-15T06:31:10;87.30;;;44.28;;
58950;SDS011;44730;53.158;6.398;2022-11-15T06:33:36;77.80;;;41.65;;
58950;SDS011;44730;53.158;6.398;2022-11-15T06:36:04;86.65;;;45.92;;
58950;SDS011;44730;53.158;6.398;2022-11-15T06:38:31;91.40;;;45.38;;
58950;SDS011;44730;53.158;6.398;2022-11-15T06:41:01;84.32;;;43.92;;
58950;SDS011;44730;53.158;6.398;2022-11-15T06:43:31;104.10;;;48.97;;
58950;SDS011;44730;53.158;6.398;2022-11-15T06:46:01;84.25;;;45.85;;
58950;SDS011;44730;53.158;6.398;2022-11-15T06:48:28;76.80;;;42.53;;
58950;SDS011;44730;53.158;6.398;2022-11-15T06:50:55;77.45;;;41.40;;
58950;SDS011;44730;53.158;6.398;2022-11-15T06:53:23;91.10;;;45.22;;
58950;SDS011;44730;53.158;6.398;2022-11-15T06:55:49;82.97;;;43.05;;
58950;SDS011;44730;53.158;6.398;2022-11-15T06:58:15;72.93;;;37.78;;
58950;SDS011;44730;53.158;6.398;2022-11-15T07:00:41;76.80;;;43.67;;
58950;SDS011;44730;53.158;6.398;2022-11-15T07:03:07;77.50;;;40.50;;
58950;SDS011;44730;53.158;6.398;2022-11-15T07:05:33;81.10;;;38.60;;
58950;SDS011;44730;53.158;6.398;2022-11-15T07:08:00;63.05;;;34.42;;
58950;SDS011;44730;53.158;6.398;2022-11-15T07:10:26;76.03;;;36.70;;
58950;SDS011;44730;53.158;6.398;2022-11-15T07:12:52;68.07;;;33.85;;
58950;SDS011;44730;53.158;6.398;2022-11-15T07:15:19;73.43;;;35.60;;
58950;SDS011;44730;53.158;6.398;2022-11-15T07:17:49;64.28;;;34.10;;
58950;SDS011;44730;53.158;6.398;2022-11-15T07:20:15;69.95;;;33.63;;
58950;SDS011;44730;53.158;6.398;2022-11-15T07:22:41;69.40;;;35.10;;
58950;SDS011;44730;53.158;6.398;2022-11-15T07:25:08;60.72;;;32.25;;
58950;SDS011;44730;53.158;6.398;2022-11-15T07:27:34;59.13;;;31.60;;
58950;SDS011;44730;53.158;6.398;2022-11-15T07:30:00;61.53;;;31.30;;
58950;SDS011;44730;53.158;6.398;2022-11-15T07:32:25;53.97;;;29.35;;
58950;SDS011;44730;53.158;6.398;2022-11-15T07:34:51;68.43;;;31.85;;
58950;SDS011;44730;53.158;6.398;2022-11-15T07:37:20;61.17;;;32.83;;
58950;SDS011;44730;53.158;6.398;2022-11-15T07:39:55;57.78;;;30.58;;
58950;SDS011;44730;53.158;6.398;2022-11-15T07:42:30;66.57;;;31.48;;
58950;SDS011;44730;53.158;6.398;2022-11-15T07:45:33;60.08;;;31.13;;
58950;SDS011;44730;53.158;6.398;2022-11-15T07:48:05;52.67;;;29.02;;
58950;SDS011;44730;53.158;6.398;2022-11-15T07:50:31;52.10;;;28.55;;
58950;SDS011;44730;53.158;6.398;2022-11-15T07:53:04;50.25;;;28.85;;
58950;SDS011;44730;53.158;6.398;2022-11-15T07:55:36;51.97;;;29.40;;
58950;SDS011;44730;53.158;6.398;2022-11-15T07:58:08;48.53;;;28.02;;
58950;SDS011;44730;53.158;6.398;2022-11-15T08:00:47;47.95;;;27.90;;
58950;SDS011;44730;53.158;6.398;2022-11-15T08:03:18;45.83;;;26.02;;
58950;SDS011;44730;53.158;6.398;2022-11-15T08:05:49;48.92;;;26.95;;
58950;SDS011;44730;53.158;6.398;2022-11-15T08:08:21;46.70;;;24.95;;
58950;SDS011;44730;53.158;6.398;2022-11-15T08:10:49;48.08;;;25.67;;
58950;SDS011;44730;53.158;6.398;2022-11-15T08:13:17;39.67;;;24.42;;
58950;SDS011;44730;53.158;6.398;2022-11-15T08:15:43;45.67;;;24.00;;
58950;SDS011;44730;53.158;6.398;2022-11-15T08:18:14;38.20;;;23.38;;
58950;SDS011;44730;53.158;6.398;2022-11-15T08:20:44;36.88;;;22.00;;
58950;SDS011;44730;53.158;6.398;2022-11-15T08:23:19;36.65;;;21.75;;
58950;SDS011;44730;53.158;6.398;2022-11-15T08:25:47;38.55;;;22.70;;
58950;SDS011;44730;53.158;6.398;2022-11-15T08:28:15;33.63;;;21.25;;
58950;SDS011;44730;53.158;6.398;2022-11-15T08:30:47;35.13;;;21.55;;
58950;SDS011;44730;53.158;6.398;2022-11-15T08:33:13;33.47;;;20.10;;
58950;SDS011;44730;53.158;6.398;2022-11-15T08:35:42;35.58;;;20.83;;
58950;SDS011;44730;53.158;6.398;2022-11-15T08:38:21;32.65;;;20.70;;
58950;SDS011;44730;53.158;6.398;2022-11-15T08:41:01;31.35;;;19.65;;
58950;SDS011;44730;53.158;6.398;2022-11-15T08:43:29;31.30;;;19.17;;
58950;SDS011;44730;53.158;6.398;2022-11-15T08:45:58;29.45;;;19.35;;
58950;SDS011;44730;53.158;6.398;2022-11-15T08:48:24;26.98;;;18.15;;
58950;SDS011;44730;53.158;6.398;2022-11-15T08:50:54;28.30;;;17.33;;
58950;SDS011;44730;53.158;6.398;2022-11-15T08:53:21;27.08;;;17.05;;
58950;SDS011;44730;53.158;6.398;2022-11-15T08:55:52;27.92;;;17.35;;
58950;SDS011;44730;53.158;6.398;2022-11-15T08:58:18;30.02;;;18.08;;
58950;SDS011;44730;53.158;6.398;2022-11-15T09:00:54;26.73;;;16.58;;
58950;SDS011;44730;53.158;6.398;2022-11-15T09:03:26;27.35;;;16.52;;
58950;SDS011;44730;53.158;6.398;2022-11-15T09:05:59;27.02;;;15.57;;
58950;SDS011;44730;53.158;6.398;2022-11-15T09:08:28;25.00;;;15.52;;
58950;SDS011;44730;53.158;6.398;2022-11-15T09:11:08;25.60;;;14.77;;
58950;SDS011;44730;53.158;6.398;2022-11-15T09:13:35;22.63;;;15.50;;
58950;SDS011;44730;53.158;6.398;2022-11-15T09:16:15;26.13;;;16.25;;
58950;SDS011;44730;53.158;6.398;2022-11-15T09:18:41;23.98;;;15.00;;
58950;SDS011;44730;53.158;6.398;2022-11-15T09:21:07;22.02;;;14.55;;
58950;SDS011;44730;53.158;6.398;2022-11-15T09:23:33;24.52;;;14.75;;
58950;SDS011;44730;53.158;6.398;2022-11-15T09:26:00;22.25;;;14.63;;
58950;SDS011;44730;53.158;6.398;2022-11-15T09:28:30;21.13;;;14.32;;
58950;SDS011;44730;53.158;6.398;2022-11-15T09:30:57;24.25;;;14.25;;
58950;SDS011;44730;53.158;6.398;2022-11-15T09:33:24;22.35;;;14.27;;
58950;SDS011;44730;53.158;6.398;2022-11-15T09:35:53;21.92;;;14.10;;
58950;SDS011;44730;53.158;6.398;2022-11-15T09:38:19;23.13;;;13.07;;
58950;SDS011;44730;53.158;6.398;2022-11-15T09:40:47;20.85;;;12.88;;
58950;SDS011;44730;53.158;6.398;2022-11-15T09:49:14;18.98;;;12.30;;
58950;SDS011;44730;53.158;6.398;2022-11-15T09:51:42;20.63;;;13.15;;
58950;SDS011;44730;53.158;6.398;2022-11-15T09:57:23;20.30;;;12.75;;
58950;SDS011;44730;53.158;6.398;2022-11-15T10:00:15;20.17;;;12.32;;
58950;SDS011;44730;53.158;6.398;2022-11-15T10:05:42;19.45;;;11.98;;
58950;SDS011;44730;53.158;6.398;2022-11-15T10:10:58;20.95;;;13.07;;
58950;SDS011;44730;53.158;6.398;2022-11-15T10:13:45;16.95;;;11.90;;
58950;SDS011;44730;53.158;6.398;2022-11-15T10:16:21;18.15;;;12.18;;
58950;SDS011;44730;53.158;6.398;2022-11-15T10:24:39;18.42;;;12.48;;
58950;SDS011;44730;53.158;6.398;2022-11-15T10:27:14;19.10;;;12.30;;
58950;SDS011;44730;53.158;6.398;2022-11-15T10:29:46;18.85;;;12.10;;
58950;SDS011;44730;53.158;6.398;2022-11-15T10:32:14;17.05;;;11.68;;
58950;SDS011;44730;53.158;6.398;2022-11-15T10:34:47;17.33;;;11.50;;
58950;SDS011;44730;53.158;6.398;2022-11-15T10:37:13;21.08;;;11.60;;
58950;SDS011;44730;53.158;6.398;2022-11-15T10:39:39;19.20;;;11.93;;
58950;SDS011;44730;53.158;6.398;2022-11-15T10:42:15;14.95;;;10.23;;
58950;SDS011;44730;53.158;6.398;2022-11-15T10:44:51;16.70;;;11.43;;
58950;SDS011;44730;53.158;6.398;2022-11-15T10:47:30;17.25;;;11.40;;
58950;SDS011;44730;53.158;6.398;2022-11-15T10:49:58;19.02;;;11.02;;
58950;SDS011;44730;53.158;6.398;2022-11-15T10:52:45;17.48;;;11.32;;
58950;SDS011;44730;53.158;6.398;2022-11-15T10:57:47;15.38;;;11.07;;
58950;SDS011;44730;53.158;6.398;2022-11-15T11:00:28;14.63;;;9.98;;
58950;SDS011;44730;53.158;6.398;2022-11-15T11:02:58;14.25;;;9.50;;
58950;SDS011;44730;53.158;6.398;2022-11-15T11:05:36;14.25;;;8.95;;
58950;SDS011;44730;53.158;6.398;2022-11-15T11:13:23;14.25;;;9.05;;
58950;SDS011;44730;53.158;6.398;2022-11-15T11:15:53;12.05;;;8.65;;
58950;SDS011;44730;53.158;6.398;2022-11-15T11:21:29;12.50;;;8.45;;
58950;SDS011;44730;53.158;6.398;2022-11-15T11:24:17;12.48;;;8.20;;
58950;SDS011;44730;53.158;6.398;2022-11-15T11:27:22;12.25;;;7.85;;
58950;SDS011;44730;53.158;6.398;2022-11-15T11:30:01;11.77;;;7.10;;
58950;SDS011;44730;53.158;6.398;2022-11-15T11:32:39;12.27;;;7.53;;
58950;SDS011;44730;53.158;6.398;2022-11-15T11:35:24;12.63;;;7.35;;
58950;SDS011;44730;53.158;6.398;2022-11-15T12:00:14;7.63;;;4.55;;
58950;SDS011;44730;53.158;6.398;2022-11-15T12:03:01;7.47;;;4.40;;
58950;SDS011;44730;53.158;6.398;2022-11-15T12:05:57;5.15;;;3.80;;
58950;SDS011;44730;53.158;6.398;2022-11-15T12:08:46;5.63;;;3.47;;
58950;SDS011;44730;53.158;6.398;2022-11-15T12:11:23;5.38;;;3.72;;
58950;SDS011;44730;53.158;6.398;2022-11-15T12:14:01;4.88;;;3.38;;
58950;SDS011;44730;53.158;6.398;2022-11-15T12:16:31;5.80;;;2.75;;
58950;SDS011;44730;53.158;6.398;2022-11-15T12:19:02;5.38;;;2.50;;
58950;SDS011;44730;53.158;6.398;2022-11-15T12:21:34;3.10;;;2.33;;
58950;SDS011;44730;53.158;6.398;2022-11-15T12:24:33;4.80;;;2.55;;
58950;SDS011;44730;53.158;6.398;2022-11-15T12:29:49;5.43;;;2.40;;
58950;SDS011;44730;53.158;6.398;2022-11-15T12:32:28;4.53;;;2.60;;
58950;SDS011;44730;53.158;6.398;2022-11-15T12:34:54;3.15;;;2.20;;
58950;SDS011;44730;53.158;6.398;2022-11-15T12:42:38;3.75;;;2.60;;
58950;SDS011;44730;53.158;6.398;2022-11-15T12:45:29;4.95;;;2.50;;
58950;SDS011;44730;53.158;6.398;2022-11-15T12:58:45;26.70;;;5.57;;
58950;SDS011;44730;53.158;6.398;2022-11-15T13:06:44;4.25;;;2.80;;
58950;SDS011;44730;53.158;6.398;2022-11-15T13:12:10;5.75;;;3.10;;
58950;SDS011;44730;53.158;6.398;2022-11-15T13:14:52;3.75;;;2.80;;
58950;SDS011;44730;53.158;6.398;2022-11-15T13:17:56;5.88;;;2.80;;
58950;SDS011;44730;53.158;6.398;2022-11-15T13:20:28;5.10;;;2.95;;
58950;SDS011;44730;53.158;6.398;2022-11-15T13:30:40;7.25;;;2.78;;
58950;SDS011;44730;53.158;6.398;2022-11-15T13:33:30;3.97;;;2.60;;
58950;SDS011;44730;53.158;6.398;2022-11-15T13:40:53;4.85;;;2.85;;
58950;SDS011;44730;53.158;6.398;2022-11-15T13:43:26;4.95;;;2.80;;
58950;SDS011;44730;53.158;6.398;2022-11-15T13:46:05;6.68;;;2.70;;
58950;SDS011;44730;53.158;6.398;2022-11-15T13:49:09;5.10;;;3.58;;
58950;SDS011;44730;53.158;6.398;2022-11-15T13:51:39;4.03;;;2.85;;
58950;SDS011;44730;53.158;6.398;2022-11-15T13:57:03;3.47;;;2.63;;
58950;SDS011;44730;53.158;6.398;2022-11-15T13:59:36;4.10;;;3.20;;
58950;SDS011;44730;53.158;6.398;2022-11-15T14:02:15;4.55;;;2.75;;
58950;SDS011;44730;53.158;6.398;2022-11-15T14:04:57;3.83;;;2.92;;
58950;SDS011;44730;53.158;6.398;2022-11-15T14:07:26;5.85;;;2.45;;
58950;SDS011;44730;53.158;6.398;2022-11-15T14:09:53;6.07;;;2.63;;
58950;SDS011;44730;53.158;6.398;2022-11-15T14:14:57;3.22;;;2.60;;
58950;SDS011;44730;53.158;6.398;2022-11-15T14:19:59;3.10;;;2.20;;
58950;SDS011;44730;53.158;6.398;2022-11-15T14:22:26;4.80;;;2.40;;
58950;SDS011;44730;53.158;6.398;2022-11-15T14:27:38;4.10;;;2.10;;
58950;SDS011;44730;53.158;6.398;2022-11-15T14:30:04;2.92;;;1.90;;
58950;SDS011;44730;53.158;6.398;2022-11-15T14:32:41;3.53;;;2.22;;
58950;SDS011;44730;53.158;6.398;2022-11-15T14:35:14;4.50;;;2.28;;
58950;SDS011;44730;53.158;6.398;2022-11-15T14:37:49;2.00;;;1.80;;
58950;SDS011;44730;53.158;6.398;2022-11-15T14:40:17;4.72;;;2.83;;
58950;SDS011;44730;53.158;6.398;2022-11-15T14:42:47;2.50;;;1.80;;
58950;SDS011;44730;53.158;6.398;2022-11-15T14:45:15;2.03;;;1.63;;
58950;SDS011;44730;53.158;6.398;2022-11-15T14:47:45;2.45;;;1.75;;
58950;SDS011;44730;53.158;6.398;2022-11-15T14:50:12;2.05;;;1.65;;
58950;SDS011;44730;53.158;6.398;2022-11-15T14:52:39;2.58;;;2.10;;
58950;SDS011;44730;53.158;6.398;2022-11-15T14:55:11;2.20;;;1.73;;
58950;SDS011;44730;53.158;6.398;2022-11-15T14:58:00;2.08;;;1.60;;
58950;SDS011;44730;53.158;6.398;2022-11-15T15:00:32;2.20;;;2.00;;
58950;SDS011;44730;53.158;6.398;2022-11-15T15:02:59;2.45;;;1.80;;
58950;SDS011;44730;53.158;6.398;2022-11-15T15:05:32;2.65;;;1.60;;
58950;SDS011;44730;53.158;6.398;2022-11-15T15:08:00;2.35;;;1.70;;
58950;SDS011;44730;53.158;6.398;2022-11-15T15:10:34;2.08;;;1.55;;
58950;SDS011;44730;53.158;6.398;2022-11-15T15:13:02;3.03;;;1.70;;
58950;SDS011;44730;53.158;6.398;2022-11-15T15:15:36;2.05;;;1.60;;
58950;SDS011;44730;53.158;6.398;2022-11-15T15:18:03;1.88;;;1.60;;
58950;SDS011;44730;53.158;6.398;2022-11-15T15:20:30;2.65;;;1.90;;
58950;SDS011;44730;53.158;6.398;2022-11-15T15:22:57;4.05;;;1.85;;
58950;SDS011;44730;53.158;6.398;2022-11-15T15:27:52;4.28;;;1.70;;
58950;SDS011;44730;53.158;6.398;2022-11-15T15:30:17;2.08;;;1.80;;
58950;SDS011;44730;53.158;6.398;2022-11-15T15:32:43;2.25;;;1.92;;
58950;SDS011;44730;53.158;6.398;2022-11-15T15:35:11;4.07;;;2.15;;
58950;SDS011;44730;53.158;6.398;2022-11-15T15:37:37;5.28;;;2.45;;
58950;SDS011;44730;53.158;6.398;2022-11-15T15:40:08;2.97;;;2.55;;
58950;SDS011;44730;53.158;6.398;2022-11-15T15:42:38;4.78;;;2.10;;
58950;SDS011;44730;53.158;6.398;2022-11-15T15:45:03;3.80;;;2.40;;
58950;SDS011;44730;53.158;6.398;2022-11-15T15:47:30;4.50;;;2.70;;
58950;SDS011;44730;53.158;6.398;2022-11-15T15:49:56;2.90;;;2.40;;
58950;SDS011;44730;53.158;6.398;2022-11-15T15:52:21;4.85;;;2.75;;
58950;SDS011;44730;53.158;6.398;2022-11-15T15:54:47;3.95;;;2.88;;
58950;SDS011;44730;53.158;6.398;2022-11-15T15:57:13;5.82;;;3.20;;
58950;SDS011;44730;53.158;6.398;2022-11-15T15:59:39;4.85;;;3.13;;
58950;SDS011;44730;53.158;6.398;2022-11-15T16:02:05;4.82;;;3.33;;
58950;SDS011;44730;53.158;6.398;2022-11-15T16:04:33;5.03;;;3.35;;
58950;SDS011;44730;53.158;6.398;2022-11-15T16:06:59;5.97;;;3.33;;
58950;SDS011;44730;53.158;6.398;2022-11-15T16:09:25;4.65;;;3.42;;
58950;SDS011;44730;53.158;6.398;2022-11-15T16:14:36;5.72;;;4.30;;
58950;SDS011;44730;53.158;6.398;2022-11-15T16:17:01;6.65;;;4.70;;
58950;SDS011;44730;53.158;6.398;2022-11-15T16:19:28;5.05;;;4.50;;
58950;SDS011;44730;53.158;6.398;2022-11-15T16:21:57;6.32;;;4.70;;
58950;SDS011;44730;53.158;6.398;2022-11-15T16:24:22;5.43;;;4.80;;
58950;SDS011;44730;53.158;6.398;2022-11-15T16:26:48;6.55;;;5.50;;
58950;SDS011;44730;53.158;6.398;2022-11-15T16:29:16;6.10;;;5.25;;
58950;SDS011;44730;53.158;6.398;2022-11-15T16:31:41;6.82;;;5.72;;
58950;SDS011;44730;53.158;6.398;2022-11-15T16:34:07;6.13;;;5.47;;
58950;SDS011;44730;53.158;6.398;2022-11-15T16:36:33;6.00;;;5.38;;
58950;SDS011;44730;53.158;6.398;2022-11-15T16:39:00;6.35;;;5.55;;
58950;SDS011;44730;53.158;6.398;2022-11-15T16:41:30;5.88;;;5.30;;
58950;SDS011;44730;53.158;6.398;2022-11-15T16:43:56;6.20;;;5.60;;
58950;SDS011;44730;53.158;6.398;2022-11-15T16:46:23;6.47;;;5.53;;
58950;SDS011;44730;53.158;6.398;2022-11-15T16:48:50;5.45;;;4.90;;
58950;SDS011;44730;53.158;6.398;2022-11-15T16:51:17;5.47;;;4.88;;
58950;SDS011;44730;53.158;6.398;2022-11-15T16:53:43;6.32;;;5.13;;
58950;SDS011;44730;53.158;6.398;2022-11-15T16:56:26;6.30;;;5.15;;
58950;SDS011;44730;53.158;6.398;2022-11-15T16:58:54;5.38;;;4.88;;
58950;SDS011;44730;53.158;6.398;2022-11-15T17:01:32;5.82;;;5.18;;
58950;SDS011;44730;53.158;6.398;2022-11-15T17:04:11;5.72;;;5.15;;
58950;SDS011;44730;53.158;6.398;2022-11-15T17:06:38;6.75;;;4.65;;